KRKR/RKR METAR and TAF weather

Enter ICAO airport designator
Station Type Date Time Source
KRKR METAR 2020/07/11 01:35 UTC NOAA

KRKR 110135Z AUTO 00000KT 10SM CLR 26/23 A2999 RMK AO2


Station Type Date Time Source
KRKR Decoded METAR 2020/07/11 01:35 UTC NOAA

Poteau, Robert S Kerr Airport, OK, United States (KRKR) 35-01-18N 094-37-17W
Jul 10, 2020 - 09:35 PM EDT / 2020.07.11 0135 UTC
Wind: Calm:0
Visibility: 10 mile(s):0
Sky conditions: clear
Temperature: 78 F (26 C)
Dew Point: 73 F (23 C)
Relative Humidity: 83%
Pressure (altimeter): 29.99 in. Hg (1015 hPa)
ob: KRKR 110135Z AUTO 00000KT 10SM CLR 26/23 A2999 RMK AO2
cycle: 1

Station Type Date Time Source
KRKR TAF UTC NOAA

Error!

Example: see airport list